South Greensboro, North Carolina
Current Conditions -  °F | °C
As of 9:54 AM on Friday 19 Dec 2014 (Local Time) from KGSO Reporting Station
Few Clouds Few Clouds  
Wind Chill: 43°   Ceiling: Unl
Heat Index: 45°   Visibility: 10mi
Dew Point: 21°   Wind: 5mph
Humidity: 39%   Direction: 340°NNW
Pressure: 30.17"   Gusts: NA
Location:  36°N, 79.7628°W
Report Text: KGSO 191454Z 34004KT 10SM FEW065 07/M06 A3017 RMK AO2 SLP217 T00721061 51016
Loading
Personal Weather Stations






























Interactive Weather Map New forecast layout! Learn more

10-Day Weather Forecast

Advertisements
Track Severe Weather on mobile